Time;durP1;ratioP1;P1;durP2;ratioP2;P2;SDS_P1;SDS_P2;PMS_P1;PMS_P2;Temp;Humidity;BMP_temperature;BMP_pressure;BME280_temperature;BME280_humidity;BME280_pressure;Samples;Min_cycle;Max_cycle;Signal;HPM_P1;HPM_P2
2024/01/18 00:00:19;;;;;;;;;18.00;15.33;;;;;2.85;77.81;98576.56;5033939;28;45349;-78
2024/01/18 00:02:45;;;;;;;;;26.67;22.00;;;;;3.00;79.45;98596.06;5034101;28;45693;-77
2024/01/18 00:05:10;;;;;;;;;22.33;19.33;;;;;2.69;78.89;98556.22;5032378;28;45250;-77
2024/01/18 00:07:36;;;;;;;;;24.33;20.33;;;;;3.06;79.21;98616.50;5043447;28;45289;-78
2024/01/18 00:10:01;;;;;;;;;26.00;18.67;;;;;3.18;77.82;98635.47;5055400;28;45103;-78
2024/01/18 00:12:27;;;;;;;;;24.00;22.67;;;;;3.26;77.12;98649.53;5054774;28;45725;-79
2024/01/18 00:14:52;;;;;;;;;21.67;20.67;;;;;3.26;77.46;98654.78;5051661;28;46272;-76
2024/01/18 00:17:17;;;;;;;;;18.33;18.33;;;;;3.15;77.28;98625.25;5053507;28;45106;-78
2024/01/18 00:19:43;;;;;;;;;21.33;19.67;;;;;3.32;77.04;98653.34;5015848;28;45208;-79
2024/01/18 00:22:08;;;;;;;;;24.33;21.33;;;;;3.33;77.45;98650.56;5031730;28;45224;-79
2024/01/18 00:24:34;;;;;;;;;23.00;19.00;;;;;3.38;77.85;98651.91;5031574;28;45304;-78
2024/01/18 00:27:00;;;;;;;;;19.33;16.67;;;;;2.57;77.59;98511.00;5031441;28;45213;-78
2024/01/18 00:29:26;;;;;;;;;23.00;18.67;;;;;3.34;77.59;98654.00;5031505;28;45322;-77
2024/01/18 00:31:51;;;;;;;;;24.33;21.67;;;;;3.27;78.07;98651.16;5012914;28;46876;-78
2024/01/18 00:34:17;;;;;;;;;18.33;14.33;;;;;3.20;77.35;98649.25;5030725;28;44994;-78
2024/01/18 00:36:42;;;;;;;;;28.00;22.67;;;;;3.23;78.01;98639.31;5046925;28;45218;-78
2024/01/18 00:39:11;;;;;;;;;24.00;19.67;;;;;3.22;78.40;98647.34;5052624;28;45389;-78
2024/01/18 00:41:38;;;;;;;;;22.00;20.00;;;;;2.69;77.98;98579.84;5052308;28;45393;-77
2024/01/18 00:44:03;;;;;;;;;22.00;19.67;;;;;3.23;78.42;98657.69;5051572;28;45180;-77
2024/01/18 00:46:30;;;;;;;;;20.33;17.67;;;;;2.99;77.92;98621.50;5034359;28;45029;-77
2024/01/18 00:48:55;;;;;;;;;19.67;16.33;;;;;3.15;77.50;98641.00;5039664;28;44927;-78
2024/01/18 00:51:21;;;;;;;;;12.33;11.33;;;;;3.09;78.27;98642.44;5014303;28;45945;-77
2024/01/18 00:53:46;;;;;;;;;19.33;19.33;;;;;2.60;78.15;98542.22;5032111;28;45034;-80
2024/01/18 00:56:12;;;;;;;;;22.00;14.67;;;;;3.16;77.46;98643.50;5044983;28;45159;-76
2024/01/18 00:58:38;;;;;;;;;20.67;16.33;;;;;3.05;77.81;98635.84;5052801;28;45113;-79
2024/01/18 01:01:04;;;;;;;;;17.67;16.67;;;;;2.40;77.31;98546.75;5053490;28;45648;-77
2024/01/18 01:03:29;;;;;;;;;22.00;19.00;;;;;3.02;78.26;98638.75;5051322;28;44969;-77
2024/01/18 01:05:54;;;;;;;;;23.67;22.00;;;;;3.11;77.57;98642.28;5046803;28;46061;-78
2024/01/18 01:08:20;;;;;;;;;17.67;16.33;;;;;2.67;77.69;98577.38;5045675;28;45416;-77
2024/01/18 01:10:45;;;;;;;;;16.00;16.00;;;;;2.99;78.61;98615.41;5051649;28;47420;-77
2024/01/18 01:13:11;;;;;;;;;20.67;15.33;;;;;3.11;77.74;98630.00;5052878;28;45430;-77
2024/01/18 01:15:36;;;;;;;;;15.00;15.00;;;;;2.75;77.40;98584.50;5052291;28;45641;-76
2024/01/18 01:18:02;;;;;;;;;20.33;19.00;;;;;2.84;77.78;98615.09;5054297;28;45132;-75
2024/01/18 01:20:28;;;;;;;;;19.33;18.67;;;;;2.90;77.36;98625.00;5054735;28;45567;-76
2024/01/18 01:22:54;;;;;;;;;27.67;22.67;;;;;2.92;77.37;98636.19;5053971;28;45023;-76
2024/01/18 01:25:20;;;;;;;;;24.33;19.67;;;;;2.87;78.08;98612.19;5051472;28;45260;-77
2024/01/18 01:27:45;;;;;;;;;23.00;19.33;;;;;2.88;78.71;98602.50;5039776;28;44938;-78
2024/01/18 01:30:11;;;;;;;;;23.33;19.33;;;;;3.00;77.55;98631.03;5032599;28;45673;-77
2024/01/18 01:32:36;;;;;;;;;20.33;18.33;;;;;2.75;77.71;98595.81;5030302;28;44926;-77
2024/01/18 01:35:02;;;;;;;;;22.00;20.67;;;;;2.94;77.60;98610.63;5028821;28;45006;-76
2024/01/18 01:37:27;;;;;;;;;23.00;21.67;;;;;3.02;77.66;98609.88;5040517;28;45113;-75
2024/01/18 01:39:52;;;;;;;;;21.33;19.33;;;;;2.83;77.63;98604.75;5052547;28;47454;-76
2024/01/18 01:42:18;;;;;;;;;17.33;17.33;;;;;2.89;77.70;98625.16;5053032;28;45034;-78
2024/01/18 01:44:45;;;;;;;;;23.33;20.67;;;;;2.84;77.88;98632.66;5034071;28;45144;-78
2024/01/18 01:47:10;;;;;;;;;19.67;16.00;;;;;2.77;78.30;98635.00;5053301;28;45042;-79
2024/01/18 01:49:36;;;;;;;;;19.33;18.00;;;;;2.67;78.50;98636.88;5053404;28;45041;-77
2024/01/18 01:52:02;;;;;;;;;18.00;16.33;;;;;2.70;78.55;98642.66;5052255;28;45134;-75
2024/01/18 01:54:29;;;;;;;;;19.00;16.67;;;;;2.71;78.87;98649.56;5030168;28;45042;-77
2024/01/18 01:56:57;;;;;;;;;19.00;17.33;;;;;2.94;77.66;98662.28;5030053;28;44978;-75
2024/01/18 01:59:24;;;;;;;;;22.33;18.33;;;;;2.80;77.23;98620.78;5032799;28;45394;-76
2024/01/18 02:01:50;;;;;;;;;21.67;19.67;;;;;2.98;77.14;98655.75;5033819;28;44924;-77
2024/01/18 02:04:16;;;;;;;;;20.67;18.00;;;;;2.72;76.72;98629.38;5033629;28;44954;-76
2024/01/18 02:06:43;;;;;;;;;24.00;22.33;;;;;2.82;78.39;98652.97;5033867;28;44983;-78
2024/01/18 02:09:10;;;;;;;;;22.67;18.67;;;;;2.79;78.02;98656.69;5031676;28;45766;-76
2024/01/18 02:11:36;;;;;;;;;24.33;22.00;;;;;2.53;77.92;98630.31;5033377;28;45085;-77
2024/01/18 02:14:03;;;;;;;;;23.67;21.00;;;;;2.50;79.45;98635.84;5015297;28;45152;-77
2024/01/18 02:16:30;;;;;;;;;23.00;18.67;;;;;2.67;79.26;98648.19;5034298;28;45329;-77
2024/01/18 02:18:56;;;;;;;;;13.67;12.00;;;;;2.57;79.95;98652.66;5052688;28;45342;-76
2024/01/18 02:21:21;;;;;;;;;24.00;19.67;;;;;2.62;78.99;98666.19;5052316;28;45308;-76
2024/01/18 02:23:52;;;;;;;;;13.00;13.00;;;;;2.52;79.84;98654.06;5046117;28;45412;-77
2024/01/18 02:26:17;;;;;;;;;22.33;21.33;;;;;2.47;79.58;98670.22;5054284;28;45080;-77
2024/01/18 02:28:56;;;;;;;;;23.33;19.33;;;;;1.97;80.53;98601.50;5051328;28;46560;-75
2024/01/18 02:31:22;;;;;;;;;25.00;23.33;;;;;2.50;80.14;98671.75;5052236;28;45145;-76
2024/01/18 02:33:48;;;;;;;;;20.00;19.00;;;;;2.54;79.81;98679.16;5043165;28;45299;-78
2024/01/18 02:36:15;;;;;;;;;24.67;24.67;;;;;2.27;78.81;98660.78;5037505;28;45008;-76
2024/01/18 02:38:41;;;;;;;;;23.00;22.67;;;;;2.34;78.79;98688.06;5030196;28;45039;-76
2024/01/18 02:41:06;;;;;;;;;26.33;21.67;;;;;2.13;78.37;98644.50;5030101;28;45177;-77
2024/01/18 02:43:33;;;;;;;;;33.00;26.67;;;;;2.39;79.15;98685.84;5028643;28;45279;-76
2024/01/18 02:45:58;;;;;;;;;19.33;18.33;;;;;2.02;78.94;98605.38;5048471;28;45419;-76
2024/01/18 02:48:25;;;;;;;;;28.00;23.67;;;;;2.38;78.06;98676.31;5031547;28;46992;-77
2024/01/18 02:50:51;;;;;;;;;26.00;24.33;;;;;2.24;78.49;98668.94;5049658;28;45214;-76
2024/01/18 02:53:19;;;;;;;;;25.67;22.00;;;;;2.01;79.56;98666.63;5051708;28;45092;-76
2024/01/18 02:55:46;;;;;;;;;22.00;18.33;;;;;2.05;80.09;98683.72;5054499;28;45068;-77
2024/01/18 02:58:11;;;;;;;;;25.33;23.67;;;;;1.98;80.58;98698.34;5055135;28;45492;-76
2024/01/18 03:00:38;;;;;;;;;17.67;16.67;;;;;1.82;81.46;98670.09;5055952;28;45055;-77
2024/01/18 03:03:04;;;;;;;;;24.33;18.00;;;;;1.77;80.84;98663.59;5054911;28;45085;-77
2024/01/18 03:05:29;;;;;;;;;20.00;17.67;;;;;1.86;81.68;98662.78;5035928;28;45271;-77
2024/01/18 03:07:55;;;;;;;;;22.00;17.00;;;;;1.92;81.20;98693.66;5054608;28;45054;-75
2024/01/18 03:10:22;;;;;;;;;17.33;15.67;;;;;1.96;81.96;98708.13;5035172;28;45018;-76
2024/01/18 03:12:47;;;;;;;;;16.00;16.00;;;;;1.93;82.78;98705.78;5048012;28;45403;-77
2024/01/18 03:15:12;;;;;;;;;19.00;18.00;;;;;2.11;84.59;98714.59;5047221;28;45348;-77
2024/01/18 03:17:38;;;;;;;;;20.33;17.67;;;;;1.72;81.52;98676.28;5053984;28;45077;-76
2024/01/18 03:20:07;;;;;;;;;21.67;17.00;;;;;1.79;82.90;98700.97;5053818;28;44711;-76
2024/01/18 03:22:41;;;;;;;;;15.67;15.67;;;;;1.78;84.52;98702.75;5053666;28;44915;-76
2024/01/18 03:25:07;;;;;;;;;18.33;14.67;;;;;1.99;83.86;98715.72;5034802;28;45046;-75
2024/01/18 03:27:33;;;;;;;;;18.00;12.33;;;;;1.99;83.00;98720.13;5052951;28;45592;-75
2024/01/18 03:29:58;;;;;;;;;15.00;15.00;;;;;2.07;83.26;98730.75;5053195;28;45082;-76
2024/01/18 03:32:23;;;;;;;;;14.33;11.33;;;;;1.76;83.16;98690.75;5053666;28;45266;-75
2024/01/18 03:34:49;;;;;;;;;19.00;15.33;;;;;2.19;83.59;98749.75;5053215;28;45289;-77
2024/01/18 03:37:15;;;;;;;;;11.33;11.00;;;;;2.17;81.88;98728.09;5054588;28;45236;-76
2024/01/18 03:39:40;;;;;;;;;11.33;9.33;;;;;2.24;81.69;98742.34;5054966;28;45037;-77
2024/01/18 03:42:05;;;;;;;;;14.33;13.33;;;;;2.13;82.39;98754.59;5036855;28;45214;-76
2024/01/18 03:44:33;;;;;;;;;16.33;11.67;;;;;2.21;83.63;98755.72;5054683;28;45178;-74
2024/01/18 03:46:59;;;;;;;;;16.67;15.67;;;;;2.32;82.62;98763.41;5054686;28;45025;-76
2024/01/18 03:49:25;;;;;;;;;12.00;11.33;;;;;2.19;82.52;98770.75;5054688;28;45136;-77
2024/01/18 03:51:51;;;;;;;;;11.33;11.33;;;;;2.22;83.56;98771.31;5054533;28;44974;-76
2024/01/18 03:54:17;;;;;;;;;13.67;12.33;;;;;2.25;83.54;98776.28;5053862;28;45133;-76
2024/01/18 03:56:42;;;;;;;;;9.00;9.00;;;;;2.19;82.11;98783.84;5051812;28;45328;-75
2024/01/18 03:59:12;;;;;;;;;13.33;10.00;;;;;1.84;81.85;98727.59;5051873;28;45351;-77
2024/01/18 04:01:39;;;;;;;;;16.67;12.67;;;;;2.07;84.03;98776.16;5035622;28;45012;-77
2024/01/18 04:04:04;;;;;;;;;11.33;10.33;;;;;1.80;84.96;98707.84;5053107;28;45414;-77
2024/01/18 04:06:29;;;;;;;;;10.00;9.00;;;;;2.35;83.73;98795.44;5052540;28;45127;-76
2024/01/18 04:08:55;;;;;;;;;12.00;11.00;;;;;2.37;82.10;98784.81;5035719;28;45198;-77
2024/01/18 04:11:20;;;;;;;;;10.67;10.67;;;;;2.37;81.04;98797.91;5052254;28;45003;-76
2024/01/18 04:13:47;;;;;;;;;13.67;12.00;;;;;2.34;81.46;98801.66;5035684;28;44987;-76
2024/01/18 04:16:12;;;;;;;;;14.33;13.00;;;;;2.32;81.10;98811.44;5053598;28;45225;-76
2024/01/18 04:18:37;;;;;;;;;9.33;9.33;;;;;2.26;81.01;98825.13;5053373;28;45295;-76
2024/01/18 04:21:03;;;;;;;;;15.00;12.33;;;;;2.18;81.26;98811.03;5053319;28;45088;-76
2024/01/18 04:23:28;;;;;;;;;12.00;11.00;;;;;2.18;80.79;98824.13;5052280;28;45508;-79
2024/01/18 04:25:54;;;;;;;;;15.67;12.00;;;;;1.99;80.95;98815.28;5033309;28;47326;-77
2024/01/18 04:28:20;;;;;;;;;9.00;9.00;;;;;1.80;82.17;98799.56;5051677;28;45498;-75
2024/01/18 04:30:45;;;;;;;;;15.00;12.67;;;;;2.03;82.29;98842.09;5053694;28;45245;-77
2024/01/18 04:33:11;;;;;;;;;8.00;6.00;;;;;2.01;81.42;98852.72;5053340;28;45194;-75
2024/01/18 04:35:36;;;;;;;;;7.33;7.33;;;;;2.07;82.61;98857.41;5037475;28;45593;-75
2024/01/18 04:38:03;;;;;;;;;11.00;9.33;;;;;2.08;81.45;98856.44;5054752;28;45235;-76
2024/01/18 04:40:29;;;;;;;;;10.33;8.33;;;;;1.76;81.39;98825.19;5039209;28;46175;-76
2024/01/18 04:42:54;;;;;;;;;12.67;11.00;;;;;2.09;80.36;98879.06;5033161;28;45502;-76
2024/01/18 04:45:20;;;;;;;;;11.33;11.33;;;;;2.13;80.79;98875.19;5050881;28;45541;-75
2024/01/18 04:47:46;;;;;;;;;17.33;13.00;;;;;2.09;80.35;98884.28;5051584;28;45116;-77
2024/01/18 04:50:11;;;;;;;;;13.67;13.67;;;;;2.13;80.49;98874.34;5051066;28;44933;-75
2024/01/18 04:52:37;;;;;;;;;11.00;11.00;;;;;1.96;79.41;98852.25;5050546;28;45044;-76
2024/01/18 04:55:04;;;;;;;;;11.33;11.00;;;;;2.09;78.79;98876.44;5051783;28;45455;-74
2024/01/18 04:57:32;;;;;;;;;17.00;16.00;;;;;2.20;79.30;98900.84;5050826;28;45127;-76
2024/01/18 04:59:58;;;;;;;;;12.33;12.00;;;;;2.27;78.20;98909.84;5051412;28;44948;-76
2024/01/18 05:02:24;;;;;;;;;15.33;13.67;;;;;2.35;77.18;98928.34;5052698;28;45235;-76
2024/01/18 05:04:50;;;;;;;;;14.67;13.67;;;;;2.32;77.12;98921.56;5051637;28;45455;-76
2024/01/18 05:07:16;;;;;;;;;17.00;17.00;;;;;2.20;76.13;98921.81;5033316;28;44944;-76
2024/01/18 05:09:42;;;;;;;;;14.67;11.67;;;;;2.41;76.57;98957.50;5034269;28;45130;-76
2024/01/18 05:12:07;;;;;;;;;16.67;15.33;;;;;2.41;75.33;98972.41;5052720;28;45275;-77
2024/01/18 05:14:33;;;;;;;;;17.00;13.00;;;;;2.04;75.71;98923.19;5051269;28;45714;-76
2024/01/18 05:17:05;;;;;;;;;14.33;11.33;;;;;2.22;74.43;98956.63;5051475;28;44903;-76
2024/01/18 05:19:31;;;;;;;;;16.00;14.33;;;;;2.40;75.70;98981.19;5044045;28;45232;-76
2024/01/18 05:21:56;;;;;;;;;20.33;20.33;;;;;2.03;74.59;98932.03;5053445;28;44934;-76
2024/01/18 05:24:22;;;;;;;;;18.33;18.33;;;;;2.24;74.22;98994.03;5052924;28;45002;-76
2024/01/18 05:26:47;;;;;;;;;20.00;18.00;;;;;2.13;74.28;98995.78;5047979;28;45383;-75
2024/01/18 05:29:12;;;;;;;;;19.67;18.00;;;;;2.17;74.72;99004.19;5041755;28;45491;-77
2024/01/18 05:31:38;;;;;;;;;24.67;23.67;;;;;2.06;74.20;99015.63;5036207;28;45457;-78
2024/01/18 05:34:03;;;;;;;;;21.67;21.00;;;;;2.10;75.27;99003.91;5035978;28;46004;-75
2024/01/18 05:36:28;;;;;;;;;32.67;25.33;;;;;2.19;74.10;99011.94;5034374;28;45259;-76
2024/01/18 05:38:54;;;;;;;;;23.67;23.67;;;;;1.73;74.61;98956.47;5045334;28;45685;-76
2024/01/18 05:41:19;;;;;;;;;25.00;20.33;;;;;2.08;74.92;99032.03;5033026;28;45216;-75
2024/01/18 05:43:45;;;;;;;;;27.00;25.00;;;;;2.20;74.42;99037.19;5049448;28;45175;-75
2024/01/18 05:46:10;;;;;;;;;29.67;29.33;;;;;2.14;74.37;99036.75;5047018;28;45048;-76
2024/01/18 05:48:36;;;;;;;;;41.33;32.33;;;;;2.07;74.97;99027.78;5045193;28;45033;-76
2024/01/18 05:51:01;;;;;;;;;39.00;31.67;;;;;1.83;74.08;99009.75;5052531;28;45231;-76
2024/01/18 05:53:26;;;;;;;;;28.00;21.67;;;;;1.93;74.06;99045.63;5052817;28;45617;-77
2024/01/18 05:55:52;;;;;;;;;32.00;28.33;;;;;1.86;74.66;99036.66;5052315;28;45159;-76
2024/01/18 05:58:17;;;;;;;;;27.33;26.00;;;;;1.86;74.41;99050.56;5051864;28;45158;-77
2024/01/18 06:00:42;;;;;;;;;37.33;32.00;;;;;2.07;74.65;99080.19;5054207;28;45097;-77
2024/01/18 06:03:08;;;;;;;;;41.33;30.00;;;;;1.32;74.24;98953.91;5052773;28;45868;-76
2024/01/18 06:05:34;;;;;;;;;35.33;30.33;;;;;2.21;74.38;99086.88;5052054;28;44914;-76
2024/01/18 06:07:59;;;;;;;;;26.33;26.33;;;;;2.24;73.61;99101.53;5034407;28;45064;-78
2024/01/18 06:10:25;;;;;;;;;40.33;31.00;;;;;2.12;74.38;99098.16;5053139;28;44985;-77
2024/01/18 06:12:50;;;;;;;;;32.33;31.33;;;;;2.05;74.31;99082.13;5047359;28;45310;-77
2024/01/18 06:15:18;;;;;;;;;38.00;30.67;;;;;2.17;74.63;99097.75;5040409;28;45343;-77
2024/01/18 06:17:43;;;;;;;;;41.00;37.00;;;;;1.98;73.73;99080.13;5048211;28;45555;-76
2024/01/18 06:20:09;;;;;;;;;30.00;26.67;;;;;1.92;74.75;99052.66;5050643;28;45412;-77
2024/01/18 06:22:34;;;;;;;;;35.67;32.67;;;;;1.77;73.49;99040.84;5051792;28;44971;-77
2024/01/18 06:25:00;;;;;;;;;31.67;26.67;;;;;2.22;73.99;99114.78;5052813;28;45281;-77
2024/01/18 06:27:25;;;;;;;;;34.67;29.33;;;;;2.46;73.56;99137.22;5053325;28;45136;-76
2024/01/18 06:29:52;;;;;;;;;34.00;26.00;;;;;1.99;73.85;99079.16;5052610;28;45233;-77
2024/01/18 06:32:17;;;;;;;;;36.33;33.33;;;;;2.47;73.65;99165.94;5037402;28;45236;-79
2024/01/18 06:34:43;;;;;;;;;37.33;32.33;;;;;2.47;73.91;99154.63;5045092;28;45343;-76
2024/01/18 06:37:08;;;;;;;;;36.33;29.33;;;;;2.49;73.70;99161.41;5050857;28;45810;-75
2024/01/18 06:39:35;;;;;;;;;35.00;30.00;;;;;2.35;73.67;99148.63;5050982;28;45040;-76
2024/01/18 06:42:03;;;;;;;;;38.33;35.00;;;;;2.35;73.16;99161.72;5050333;28;45840;-77
2024/01/18 06:44:28;;;;;;;;;28.67;25.67;;;;;2.31;73.60;99170.81;5050403;28;45056;-77
2024/01/18 06:46:53;;;;;;;;;29.00;28.67;;;;;2.47;73.64;99202.66;5050856;28;45243;-77
2024/01/18 06:49:19;;;;;;;;;33.33;29.67;;;;;1.67;73.74;99092.38;5049615;28;45213;-79
2024/01/18 06:51:44;;;;;;;;;33.33;29.67;;;;;2.46;73.51;99236.91;5043539;28;45466;-77
2024/01/18 06:54:10;;;;;;;;;36.67;34.67;;;;;2.21;73.71;99196.19;5051043;28;45026;-77
2024/01/18 06:56:35;;;;;;;;;28.33;24.00;;;;;2.29;73.76;99214.72;5029875;28;45510;-76
2024/01/18 06:59:01;;;;;;;;;31.67;31.33;;;;;2.19;73.28;99204.16;5035161;28;45592;-76
2024/01/18 07:01:26;;;;;;;;;34.67;31.00;;;;;2.54;73.58;99251.00;5018070;28;45484;-80
2024/01/18 07:03:53;;;;;;;;;34.33;33.00;;;;;2.70;72.70;99277.63;5025406;28;45643;-77
2024/01/18 07:06:18;;;;;;;;;35.33;30.67;;;;;2.46;73.00;99253.47;5047904;28;45300;-79
2024/01/18 07:08:44;;;;;;;;;35.67;28.33;;;;;2.56;72.41;99258.75;5049840;28;45266;-79
2024/01/18 07:11:09;;;;;;;;;37.00;28.67;;;;;2.63;72.59;99266.00;5040999;28;45394;-78
2024/01/18 07:13:43;;;;;;;;;34.33;30.33;;;;;2.48;72.88;99248.91;5039888;28;45340;-77
2024/01/18 07:16:08;;;;;;;;;40.00;33.67;;;;;2.24;71.70;99193.28;5018692;28;45367;-78
2024/01/18 07:18:33;;;;;;;;;34.67;32.67;;;;;2.52;71.91;99242.44;5034192;28;45206;-79
2024/01/18 07:21:02;;;;;;;;;54.33;42.67;;;;;2.44;72.04;99250.16;5037890;28;48019;-80
2024/01/18 07:23:28;;;;;;;;;31.67;25.00;;;;;1.80;72.25;99148.00;5034963;28;45509;-79
2024/01/18 07:25:53;;;;;;;;;37.67;34.67;;;;;2.89;72.81;99328.56;5034790;28;45571;-77
2024/01/18 07:28:19;;;;;;;;;34.67;30.00;;;;;2.47;72.58;99249.06;5034362;28;45283;-77
2024/01/18 07:30:45;;;;;;;;;43.67;34.33;;;;;3.08;71.29;99356.72;5015476;28;46277;-79
2024/01/18 07:33:10;;;;;;;;;35.00;31.33;;;;;3.01;70.84;99345.91;5032913;28;45530;-79
2024/01/18 07:35:36;;;;;;;;;35.33;35.33;;;;;3.16;70.69;99362.97;5014574;28;45340;-79
2024/01/18 07:38:01;;;;;;;;;36.67;33.33;;;;;2.82;71.54;99315.13;5035222;28;45714;-79
2024/01/18 07:40:27;;;;;;;;;37.33;36.00;;;;;2.55;70.69;99289.41;5034187;28;45617;-78
2024/01/18 07:42:55;;;;;;;;;38.67;31.67;;;;;2.75;71.12;99327.91;5017845;28;45422;-78
2024/01/18 07:45:21;;;;;;;;;43.67;39.00;;;;;2.93;70.67;99392.97;5022561;28;45408;-78
2024/01/18 07:47:46;;;;;;;;;39.33;37.00;;;;;2.85;70.44;99384.91;5039855;28;45271;-79
2024/01/18 07:50:12;;;;;;;;;46.67;36.33;;;;;2.90;70.57;99385.34;5037363;28;45443;-78
2024/01/18 07:52:38;;;;;;;;;52.33;39.00;;;;;3.08;69.96;99407.44;5039572;28;45740;-80
2024/01/18 07:55:06;;;;;;;;;37.33;36.00;;;;;2.91;69.76;99402.75;5042335;28;45273;-77
2024/01/18 07:57:32;;;;;;;;;36.00;34.33;;;;;2.94;70.02;99426.13;5046143;28;45350;-77
2024/01/18 07:59:57;;;;;;;;;34.00;31.33;;;;;3.00;70.27;99428.22;5036940;28;45398;-80
2024/01/18 08:02:22;;;;;;;;;44.67;37.67;;;;;2.99;69.49;99435.28;5036963;28;45719;-79
2024/01/18 08:04:48;;;;;;;;;43.00;35.33;;;;;2.66;69.74;99373.31;5036119;28;45542;-79
2024/01/18 08:07:15;;;;;;;;;46.00;38.67;;;;;2.88;68.96;99432.72;5029188;28;45562;-75
2024/01/18 08:09:40;;;;;;;;;48.67;39.00;;;;;2.74;69.39;99427.78;5038260;28;46198;-78
2024/01/18 08:12:07;;;;;;;;;44.33;39.00;;;;;3.05;69.67;99466.28;5052623;28;44935;-78
2024/01/18 08:14:33;;;;;;;;;49.00;37.33;;;;;3.02;70.08;99469.16;5052306;28;45146;-79
2024/01/18 08:16:58;;;;;;;;;57.50;44.50;;;;;3.02;70.11;99463.91;5053560;28;45204;-77
2024/01/18 08:19:24;;;;;;;;;46.00;39.50;;;;;2.92;69.42;99463.00;5053718;28;45114;-78
2024/01/18 08:21:50;;;;;;;;;51.50;41.75;;;;;2.58;69.90;99403.75;5049804;28;44981;-80
2024/01/18 08:24:15;;;;;;;;;50.33;39.67;;;;;3.06;69.30;99482.88;5023908;28;45365;-79
2024/01/18 08:26:41;;;;;;;;;43.67;38.67;;;;;3.12;69.68;99497.28;5023942;28;45467;-79
2024/01/18 08:29:06;;;;;;;;;47.33;39.67;;;;;1.80;68.90;99286.88;5046102;28;45223;-79
2024/01/18 08:31:32;;;;;;;;;43.33;39.00;;;;;2.83;68.54;99465.56;5036512;28;45378;-80
2024/01/18 08:33:57;;;;;;;;;51.33;42.00;;;;;2.93;69.39;99503.22;5034811;28;45497;-79
2024/01/18 08:36:22;;;;;;;;;52.33;44.00;;;;;3.19;68.94;99536.03;5051890;28;45328;-78
2024/01/18 08:38:48;;;;;;;;;47.67;39.67;;;;;3.04;69.39;99498.75;5044204;28;46504;-79
2024/01/18 08:41:13;;;;;;;;;46.33;39.67;;;;;2.92;68.96;99484.00;5023905;28;45499;-78
2024/01/18 08:43:39;;;;;;;;;49.67;40.00;;;;;3.22;68.45;99535.81;5028155;28;45571;-76
2024/01/18 08:46:07;;;;;;;;;41.33;36.33;;;;;3.52;68.50;99566.56;5036634;28;45238;-79
2024/01/18 08:48:33;;;;;;;;;49.00;40.33;;;;;3.34;67.27;99521.63;5041914;28;45696;-81
2024/01/18 08:50:59;;;;;;;;;49.33;39.00;;;;;3.62;67.01;99559.59;5032360;28;45237;-79
2024/01/18 08:53:24;;;;;;;;;53.75;42.00;;;;;3.89;65.80;99587.97;5040280;28;45314;-78
2024/01/18 08:55:49;;;;;;;;;48.33;41.00;;;;;4.09;65.51;99595.97;5047278;28;45249;-79
2024/01/18 08:58:16;;;;;;;;;25.00;20.00;;;;;3.37;64.00;99444.34;5039137;28;45240;-79
2024/01/18 09:00:41;;;;;;;;;43.00;37.33;;;;;4.22;63.64;99572.91;5026932;28;46438;-78
2024/01/18 09:03:07;;;;;;;;;46.33;39.33;;;;;4.45;63.67;99571.75;5040563;28;45658;-80
2024/01/18 09:05:32;;;;;;;;;46.33;39.33;;;;;4.86;61.92;99619.94;5036739;28;45285;-78
2024/01/18 09:08:00;;;;;;;;;54.25;45.25;;;;;5.34;61.71;99627.06;5036162;28;45718;-80
2024/01/18 09:10:26;;;;;;;;;47.00;39.33;;;;;6.06;61.41;99650.38;5039048;28;45333;-79
2024/01/18 09:12:51;;;;;;;;;52.67;43.33;;;;;6.55;58.62;99648.41;5020517;28;45376;-80
2024/01/18 09:15:17;;;;;;;;;53.33;39.67;;;;;7.14;58.02;99613.63;5046251;28;44928;-79
2024/01/18 09:17:42;;;;;;;;;49.00;40.00;;;;;8.29;54.59;99663.03;5041248;28;45309;-79
2024/01/18 09:20:09;;;;;;;;;52.67;40.33;;;;;8.79;51.28;99661.34;5036480;28;45400;-79
2024/01/18 09:22:34;;;;;;;;;42.67;35.33;;;;;9.27;50.91;99622.75;5021808;28;45510;-79
2024/01/18 09:25:00;;;;;;;;;48.33;37.33;;;;;10.07;49.11;99622.94;5037005;28;45502;-78
2024/01/18 09:27:25;;;;;;;;;39.33;36.00;;;;;9.14;48.80;99625.03;5040784;28;45283;-81
2024/01/18 09:29:51;;;;;;;;;44.33;37.00;;;;;8.97;49.97;99702.84;5045566;28;45371;-80
2024/01/18 09:32:16;;;;;;;;;45.00;38.33;;;;;8.64;51.42;99710.66;5039833;28;45381;-78
2024/01/18 09:34:42;;;;;;;;;47.00;40.00;;;;;8.20;50.75;99705.31;5043432;28;45389;-79
2024/01/18 09:37:07;;;;;;;;;48.33;38.67;;;;;7.71;53.29;99674.16;5039152;28;47102;-80
2024/01/18 09:39:32;;;;;;;;;47.00;40.33;;;;;7.77;52.72;99707.94;5039981;28;45341;-81
2024/01/18 09:41:58;;;;;;;;;47.67;41.00;;;;;6.99;52.80;99678.53;5023863;28;45404;-81
2024/01/18 09:44:34;;;;;;;;;47.33;39.00;;;;;6.33;53.85;99602.94;5044688;28;45279;-80
2024/01/18 09:47:03;;;;;;;;;46.00;38.33;;;;;7.12;54.65;99742.47;5046975;28;45974;-81
2024/01/18 09:49:32;;;;;;;;;54.33;42.67;;;;;6.86;54.60;99747.56;5038597;28;45363;-80
2024/01/18 09:51:59;;;;;;;;;43.33;38.33;;;;;6.39;55.91;99686.81;5022151;28;45541;-80
2024/01/18 09:54:25;;;;;;;;;53.33;42.00;;;;;6.64;55.03;99759.31;5044055;28;45371;-80
2024/01/18 09:56:53;;;;;;;;;50.33;40.33;;;;;6.22;55.97;99774.69;5040826;28;45583;-80
2024/01/18 09:59:21;;;;;;;;;55.75;43.00;;;;;5.64;57.33;99747.41;5036223;28;45604;-80
2024/01/18 10:01:47;;;;;;;;;44.33;38.67;;;;;5.96;58.79;99795.47;5039415;28;45437;-78
2024/01/18 10:04:14;;;;;;;;;43.67;37.33;;;;;5.98;58.51;99782.16;5039275;28;45388;-79
2024/01/18 10:06:43;;;;;;;;;51.67;40.00;;;;;6.16;57.79;99812.16;5040511;28;45547;-80
2024/01/18 10:09:10;;;;;;;;;52.50;41.00;;;;;6.09;57.12;99811.88;5035586;28;45293;-79
2024/01/18 10:11:36;;;;;;;;;42.00;37.00;;;;;5.98;58.16;99829.63;5041314;28;45495;-80
2024/01/18 10:14:02;;;;;;;;;44.25;38.25;;;;;5.39;58.35;99796.16;5042061;28;45312;-79
2024/01/18 10:16:32;;;;;;;;;23.67;20.67;;;;;5.64;59.49;99842.34;5039052;28;45304;-78
2024/01/18 10:19:02;;;;;;;;;54.00;43.50;;;;;5.66;58.76;99851.78;5038672;28;45422;-80
2024/01/18 10:21:28;;;;;;;;;42.00;37.00;;;;;5.17;59.37;99776.13;5037204;28;45426;-80
2024/01/18 10:23:54;;;;;;;;;47.33;40.00;;;;;5.75;59.06;99874.69;5036277;28;45535;-81
2024/01/18 10:26:27;;;;;;;;;50.50;41.25;;;;;5.39;58.85;99841.81;5041474;28;45293;-79
2024/01/18 10:28:52;;;;;;;;;51.67;39.67;;;;;5.56;59.44;99876.44;5047636;28;45332;-79
2024/01/18 10:31:18;;;;;;;;;49.33;41.00;;;;;5.41;59.47;99865.44;5041942;28;45433;-79
2024/01/18 10:33:45;;;;;;;;;44.33;37.00;;;;;5.41;58.69;99894.41;5024485;28;45514;-79
2024/01/18 10:36:10;;;;;;;;;45.67;40.67;;;;;4.95;58.74;99844.78;5042184;28;45276;-80
2024/01/18 10:38:38;;;;;;;;;54.33;43.33;;;;;5.08;59.30;99909.50;5038977;28;45344;-79
2024/01/18 10:41:05;;;;;;;;;44.33;37.67;;;;;5.19;60.77;99917.31;5038613;28;45569;-79
2024/01/18 10:43:32;;;;;;;;;38.00;34.33;;;;;5.32;59.90;99919.75;5037329;28;45307;-79
2024/01/18 10:45:58;;;;;;;;;40.33;34.67;;;;;5.41;59.49;99918.16;5032627;28;45328;-79
2024/01/18 10:48:25;;;;;;;;;50.00;40.00;;;;;5.24;59.06;99881.84;5036162;28;45553;-77
2024/01/18 10:50:56;;;;;;;;;46.67;37.00;;;;;5.41;59.49;99918.16;5035253;28;45468;-77
2024/01/18 10:53:26;;;;;;;;;49.00;39.00;;;;;5.38;58.82;99919.22;5042224;28;45303;-78
2024/01/18 10:55:52;;;;;;;;;39.00;34.25;;;;;5.28;59.53;99938.59;5038562;28;46463;-79
2024/01/18 10:58:19;;;;;;;;;45.00;39.25;;;;;5.29;59.85;99940.25;5015856;28;45499;-78
2024/01/18 11:00:46;;;;;;;;;52.00;40.33;;;;;5.12;59.56;99916.16;5022380;28;45386;-78
2024/01/18 11:03:18;;;;;;;;;45.67;38.67;;;;;5.04;59.50;99894.06;5001556;28;45519;-80
2024/01/18 11:05:50;;;;;;;;;49.67;39.00;;;;;5.30;59.38;99944.56;5036719;28;46441;-79
2024/01/18 11:08:19;;;;;;;;;39.00;36.00;;;;;5.18;58.84;99915.63;5035091;28;45314;-78
2024/01/18 11:10:46;;;;;;;;;42.00;36.67;;;;;5.46;58.51;99972.13;5036913;28;45298;-80
2024/01/18 11:13:13;;;;;;;;;40.00;32.67;;;;;5.34;58.49;99957.34;5042179;28;45451;-79
2024/01/18 11:15:41;;;;;;;;;44.00;38.33;;;;;5.11;59.26;99935.56;5034825;28;45411;-79
2024/01/18 11:18:14;;;;;;;;;37.67;35.00;;;;;4.73;58.70;99872.09;5043685;28;45180;-80
2024/01/18 11:20:57;;;;;;;;;43.00;36.67;;;;;5.37;58.83;99982.59;5049916;28;46088;-78